Whale Point, California Weather observations

Data are for observation ending at time listed.
 Day   Time    Ave.   Ave.  Ave.  Vector   Max.   Stn.    Total    Solar   Ave.  
  of    of     Air    Rel.  Wind   Wind    Wind   Baro.  Precip.   Rad.    Soil  
Year   Day     Temp.  Hum.  Speed  Dir.    Gust   Pres.                    Temp. 
2026   (PST)    F      %     mph   deg.    mph     mb.     in.     W/m2     F   
------------------------------------------------------------------------------
 123    7:30   48.8    89    8.1    72     12.9   992.6    0.00    2694    64.3
 123    7:40   49.4    85    7.0    68     11.9   992.6    0.00    2693    64.3
 123    7:50   49.4    86    6.8    71     10.9   992.6    0.00    2691    64.3
 123    8:00   49.7    85    6.6    64     10.6   992.7    0.00    2666    64.3
 123    8:10   50.5    83    7.2    61     10.4   992.7    0.00    2614    64.2
 123    8:20   51.0    82    6.1    55      9.9   992.7    0.00    2571    64.2
 123    8:30   51.7    82    5.7    62      9.4   992.7    0.00    2545    64.1
 123    8:40   52.4    80    5.6    64     10.7   992.7    0.00    2414    64.1
 123    8:50   53.0    78    4.7    38      9.4   992.8    0.00    2265    64.1
 123    9:00   53.6    75    4.3    69      8.8   993.0    0.00    2101    64.0
 123    9:10   55.2    74    1.7   159      4.8   993.1    0.00    1927    64.0
 123    9:20   57.0    72    1.1   284      3.4   993.1    0.00    1743    64.0
 123    9:30   58.3    66    0.9   111      2.9   993.1    0.00    1453    64.0
 123    9:40   58.7    64    1.6   256      4.2   993.1    0.00    1232    64.0
 123    9:50   58.8    62    2.2   228      6.1   993.1    0.00    1046    64.0
 123   10:00   58.1    58    2.7   227      6.9   993.1    0.00     855    64.0
 123   10:10   58.8    57    1.7   275      7.2   993.3    0.00     756    64.0
 123   10:20   59.1    55    2.8   316      5.8   993.4    0.00     675    64.0
 123   10:30   58.8    55    2.7   308      6.5   993.3    0.00     659    64.0
 123   10:40   58.3    55    3.2   323      5.3   993.3    0.00     601    64.0
 123   10:50   59.5    54    3.1   233      6.2   993.3    0.00     555    64.1
 123   11:00   60.5    51    4.5   224      7.0   993.3    0.00     428    64.1
 123   11:10   60.5    50    4.2   217      6.9   993.4    0.00     307    64.1
 123   11:20   60.1    52    4.0   225      7.3   993.4    0.00     291    64.2
 123   11:30   60.2    54    3.6   228      6.0   993.4    0.00     315    64.3
 123   11:40   61.1    50    3.9   234      6.5   993.4    0.00     254    64.3
 123   11:50   62.3    50    2.4   248      6.9   993.4    0.00     196    64.4
 123   12:00   63.0    49    1.8   266      6.1   993.3    0.00     183    64.5
 123   12:10   62.5    48    2.8   307      6.4   993.3    0.00     160    64.5
 123   12:20   60.7    50    3.4   328      6.6   993.1    0.00     215    64.6
 123   12:30   60.5    48    4.5   330      7.3   992.9    0.00     215    64.7
 123   12:40   61.6    46    3.4   299      8.7   992.9    0.00     270    64.7
 123   12:50   63.6    49    6.0   231     10.3   993.0    0.00     299    64.8
 123   13:00   63.2    49    5.2   232      8.8   993.0    0.00     286    64.9
 123   13:10   63.5    48    4.7   235      7.9   993.1    0.00     305    65.0
 123   13:20   63.2    49    3.4   238      9.3   993.1    0.00     360    65.1
 123   13:30   63.2    50    3.5   242      7.9   993.0    0.00     399    65.2
 123   13:40   62.9    52    4.6   228      9.8   993.1    0.00     438    65.4
 123   13:50   62.6    52    4.9   228      8.0   993.0    0.00     450    65.6
 123   14:00   63.5    52    4.4   232      7.9   993.1    0.00     465    65.7
 123   14:10   63.5    52    3.9   236      7.7   993.1    0.00     457    65.8
 123   14:20   63.2    53    4.0   231      8.8   992.9    0.00     467    66.0
 123   14:30   63.4    54    4.8   230      8.3   992.9    0.00     471    66.1
 123   14:40   62.8    59    5.8   227     11.1   992.8    0.00     538    66.3
 123   14:50   62.3    59    5.1   234      9.1   992.8    0.00     551    66.5
 123   15:00   61.2    60    4.6   229      8.6   992.7    0.00     585    66.7
 123   15:10   60.4    62    4.5   229      7.6   992.7    0.00     617    66.8
 123   15:20   60.1    62    4.2   225      7.4   992.7    0.00     668    67.0
 123   15:30   60.4    63    4.7   224      8.6   992.8    0.00     695    67.1
 123   15:40   59.4    64    4.1   227      6.6   992.8    0.00     740    67.3
 123   15:50   58.8    68    3.9   230      6.6   992.8    0.00     845    67.5
 123   16:00   59.3    67    3.8   233      6.4   992.7    0.00     864    67.6
 123   16:10   60.1    67    3.9   230      8.0   992.7    0.00     917    67.8
 123   16:20   60.9    66    4.7   229      7.5   992.7    0.00     901    68.0
 123   16:30   60.8    65    3.5   237      7.3   992.7    0.00     923    68.1
 123   16:40   60.6    63    3.6   237      7.5   992.8    0.00     933    68.2
 123   16:50   60.7    62    3.8   230      7.9   992.8    0.00     942    68.3
 123   17:00   60.9    63    4.0   229      7.2   992.9    0.00     983    68.5
 123   17:10   60.5    64    3.2   231      6.4   992.9    0.00    1038    68.5
 123   17:20   59.6    64    3.3   235      5.9   992.9    0.00    1096    68.6
 123   17:30   59.5    65    3.1   236      6.6   992.9    0.00    1167    68.7
 123   17:40   58.6    65    3.3   230      5.8   992.9    0.00    1210    68.8
 123   17:50   59.1    62    1.8   274      4.5   992.8    0.00    1250    68.8
 123   18:00   59.6    62    1.9   310      3.4   992.8    0.00    1299    68.9
 123   18:10   59.2    61    1.5   310      3.3   992.8    0.00    1347    69.0
 123   18:20   58.3    62    2.0   320      3.9   992.8    0.00    1393    69.1
 123   18:30   57.4    64    1.7   312      4.2   992.8    0.00    1399    69.1
 123   18:40   56.4    66    1.8   276      4.2   992.7    0.00    1418    69.2
 123   18:50   55.1    68    2.2    11      4.5   992.7    0.00    1405    69.2
 123   19:00   54.1    69    0.9   346      3.7   992.9    0.00    1466    69.3
 123   19:10   53.5    72    0.6   345      2.6   993.0    0.00    1603    69.3
 123   19:20   53.3    74    1.6   351      3.9   993.0    0.00    1752    69.2
 123   19:30   52.8    76    4.1    18      5.7   993.1    0.00    1900    69.2
 123   19:40   52.8    76    2.4    36      5.2   993.3    0.00    2067    69.2
 123   19:50   52.7    77    1.7    61      3.1   993.5    0.00    2205    69.1
 123   20:00   52.7    78    2.0    70      5.3   993.6    0.00    2357    69.1
 123   20:10   52.8    78    2.9    65      4.9   993.6    0.00    2540    69.0
 123   20:20   52.9    76    3.8    74      7.2   993.7    0.00    2658    68.9
 123   20:30   52.8    75    2.9    71      4.2   993.8    0.00    2719    68.9
 123   20:40   52.9    77    1.4    44      2.4   993.9    0.00    2769    68.8
 123   20:50   52.5    77    3.1    34      5.2   994.0    0.00    2772    68.7
 123   21:00   52.5    77    2.4    51      4.4   994.1    0.00    2763    68.7
 123   21:10   52.6    77    2.6    45      4.2   994.3    0.00    2733    68.6
 123   21:20   52.6    74    3.4    43      5.3   994.4    0.00    2719    68.5
 123   21:30   52.8    75    3.3    45      4.6   994.4    0.00    2732    68.5
 123   21:40   52.6    76    3.7    63      5.8   994.4    0.00    2752    68.4
 123   21:50   52.2    74    4.5    66      6.4   994.2    0.00    2719    68.3
 123   22:00   51.7    72    4.5    70      6.6   994.2    0.00    2682    68.3
 123   22:10   52.0    70    4.4    76      6.6   994.0    0.00    2689    68.2
 123   22:20   52.3    70    4.0    81      6.2   994.0    0.00    2733    68.1
 123   22:30   52.1    70    3.9    66      5.7   994.1    0.00    2756    68.0
 123   22:40   51.4    72    4.5    61      5.9   994.1    0.00    2758    67.9
 123   22:50   51.2    72    5.1    73      7.2   994.1    0.00    2756    67.8
 123   23:00   51.6    70    5.9    77      7.9   994.1    0.00    2807    67.7
 123   23:10   51.5    71    6.4    78      8.0   994.1    0.00    2842    67.7
 123   23:20   51.2    71    6.3    71      8.3   994.2    0.00    2861    67.6
 123   23:30   50.6    72    5.8    64      8.0   994.2    0.00    2871    67.5
 123   23:40   50.5    73    5.7    64      7.4   994.3    0.00    2868    67.4
 123   23:50   50.9    70    5.9    71      8.4   994.4    0.00    2900    67.3
 124    0:00   51.4    69    5.5    69      7.5   994.5    0.00    2967    67.3
 124    0:10   51.5    68    4.9    66      6.6   994.4    0.00    3004    67.2
 124    0:20   51.4    69    5.2    58      7.4   994.3    0.00    2930    67.1
 124    0:30   51.1    70    4.5    64      6.4   994.2    0.00    2846    67.0
 124    0:40   51.8    70    4.8    50      8.0   994.1    0.00    2806    67.0
 124    0:50   51.7    71    6.9    38      8.8   993.9    0.00    2771    66.9
 124    1:00   51.4    71    6.1    63      8.6   993.9    0.00    2734    66.8
 124    1:10   50.8    72    5.2    67      8.6   993.7    0.00    2718    66.7
 124    1:20   50.5    73    6.4    46      9.3   993.7    0.00    2743    66.6
 124    1:30   50.6    72    5.2    53      6.9   993.7    0.00    2740    66.5
 124    1:40   50.4    72    5.0    59      6.9   993.7    0.00    2765    66.5
 124    1:50   50.8    70    6.0    50      7.9   993.6    0.00    2797    66.4
 124    2:00   50.6    70    5.4    58      8.0   993.5    0.00    2833    66.3
 124    2:10   50.3    70    5.9    50      8.1   993.5    0.00    2810    66.3
 124    2:20   50.6    70    6.5    40      8.5   993.5    0.00    2854    66.2
 124    2:30   50.5    69    6.1    55      8.6   993.5    0.00    2867    66.1
 124    2:40   49.9    70    6.3    60      9.1   993.4    0.00    2863    66.0
 124    2:50   50.0    70    5.8    55      8.6   993.4    0.00    2865    65.9
 124    3:00   50.2    69    6.2    47      8.3   993.4    0.00    2862    65.9
 124    3:10   50.0    69    5.4    62      7.2   993.5    0.00    2879    65.8
 124    3:20   49.8    69    5.6    64      7.5   993.4    0.00    2893    65.7
 124    3:30   49.5    70    6.1    58      7.5   993.3    0.00    2901    65.7
 124    3:40   49.9    68    6.6    39      9.9   993.3    0.00    2934    65.6
 124    3:50   50.2    67    7.1    37      9.6   993.3    0.00    2947    65.5
 124    4:00   50.4    67    6.3    44      8.8   993.3    0.00    2943    65.4
 124    4:10   50.2    67    5.4    71      8.6   993.3    0.00    2916    65.4
 124    4:20   49.9    67    5.5    66      8.5   993.3    0.00    2887    65.3
 124    4:30   49.4    68    5.6    65      7.9   993.2    0.00    2884    65.2
 124    4:40   49.3    68    6.7    72      9.3   993.3    0.00    2895    65.2
 124    4:50   49.5    68    7.3    73      9.4   993.3    0.00    2913    65.1
 124    5:00   49.4    68    6.1    68      8.3   993.3    0.00    2896    65.0
 124    5:10   49.1    69    5.7    63      7.8   993.4    0.00    2902    64.9
 124    5:20   49.1    69    5.3    64      7.2   993.4    0.00    2931    64.9
 124    5:30   49.4    68    4.4    65      6.4   993.5    0.00    2970    64.8
 124    5:40   49.8    67    4.9    70      7.2   993.6    0.00    2980    64.7
 124    5:50   49.5    67    6.0    56      8.3   993.7    0.00    2970    64.7
 124    6:00   49.7    67    5.7    59      7.7   993.8    0.00    2958    64.6
 124    6:10   49.7    67    5.5    51      7.5   993.9    0.00    2950    64.5
 124    6:20   49.7    68    5.3    61      7.5   994.0    0.00    2957    64.5
 124    6:30   50.2    67    4.8    64      7.1   994.1    0.00    2926    64.4
 124    6:40   50.5    67    5.5    60      8.3   994.1    0.00    2912    64.3
 124    6:50   50.8    68    5.4    52      8.2   994.2    0.00    2878    64.3
 124    7:00   51.0    67    5.0    43      6.9   994.1    0.00    2819    64.2
 124    7:10   52.8    64    2.6    55      4.5   994.2    0.00    2794    64.1
 124    7:20   56.8    57    0.2    61      1.8   994.2    0.00    2502    64.0

Return to Whale Point graphs page.


Western Regional Climate Center,wrcc@dri.edu